Time;durP1;ratioP1;P1;durP2;ratioP2;P2;SDS_P1;SDS_P2;PMS_P1;PMS_P2;Temp;Humidity;BMP_temperature;BMP_pressure;BME280_temperature;BME280_humidity;BME280_pressure;Samples;Min_cycle;Max_cycle;Signal;HPM_P1;HPM_P2
2021/05/03 00:02:21;;;;;;;1.55;1.45;;;11.50;91.20;;;;;;5088826;28;20262;-74
2021/05/03 00:04:47;;;;;;;1.90;1.80;;;11.50;91.10;;;;;;5094509;28;20216;-73
2021/05/03 00:07:13;;;;;;;1.75;1.20;;;11.50;91.40;;;;;;5100625;28;20213;-73
2021/05/03 00:09:40;;;;;;;2.72;1.55;;;11.50;91.30;;;;;;5100810;28;20200;-73
2021/05/03 00:12:07;;;;;;;2.15;1.55;;;11.50;91.30;;;;;;5094651;28;20202;-74
2021/05/03 00:14:34;;;;;;;1.52;1.40;;;11.50;91.20;;;;;;5090664;28;20189;-74
2021/05/03 00:17:00;;;;;;;2.03;1.70;;;11.40;91.30;;;;;;5099891;28;20208;-74
2021/05/03 00:19:27;;;;;;;2.03;1.88;;;11.40;91.40;;;;;;5096221;28;20207;-73
2021/05/03 00:21:53;;;;;;;4.50;1.70;;;11.40;91.20;;;;;;5091068;28;20201;-74
2021/05/03 00:24:19;;;;;;;1.50;1.40;;;11.40;91.20;;;;;;5090184;28;20229;-73
2021/05/03 00:26:46;;;;;;;1.52;1.27;;;11.40;91.20;;;;;;5093327;28;20197;-73
2021/05/03 00:29:12;;;;;;;1.70;1.45;;;11.40;91.20;;;;;;5097699;28;20240;-73
2021/05/03 00:31:38;;;;;;;1.55;1.45;;;11.40;91.20;;;;;;5108274;28;20254;-74
2021/05/03 00:34:05;;;;;;;2.58;1.55;;;11.40;91.20;;;;;;5092692;28;20271;-74
2021/05/03 00:36:31;;;;;;;1.80;1.55;;;11.40;91.30;;;;;;5090626;28;20205;-74
2021/05/03 00:38:57;;;;;;;2.60;1.42;;;11.40;91.30;;;;;;5096443;28;20205;-74
2021/05/03 00:41:23;;;;;;;3.40;1.80;;;11.30;91.30;;;;;;5104314;28;20208;-73
2021/05/03 00:43:51;;;;;;;2.35;1.35;;;11.30;91.30;;;;;;5096405;28;20633;-74
2021/05/03 00:46:19;;;;;;;1.35;1.23;;;11.30;91.30;;;;;;5090630;28;20283;-73
2021/05/03 00:48:46;;;;;;;1.90;1.58;;;11.30;91.40;;;;;;5104947;28;20569;-73
2021/05/03 00:51:12;;;;;;;1.92;1.60;;;11.30;91.30;;;;;;5111430;28;20537;-74
2021/05/03 00:53:39;;;;;;;1.52;1.40;;;11.20;91.30;;;;;;5100628;28;20189;-73
2021/05/03 00:56:05;;;;;;;2.40;1.23;;;11.20;91.50;;;;;;5111037;28;20200;-73
2021/05/03 00:58:32;;;;;;;1.58;1.48;;;11.20;91.80;;;;;;5104002;28;20212;-74
2021/05/03 01:00:59;;;;;;;1.90;1.48;;;11.20;91.40;;;;;;5101210;28;20610;-74
2021/05/03 01:03:25;;;;;;;1.98;1.45;;;11.20;91.50;;;;;;5090974;28;20193;-74
2021/05/03 01:05:51;;;;;;;1.60;1.50;;;11.20;91.50;;;;;;5095083;28;20217;-74
2021/05/03 01:08:18;;;;;;;1.40;1.30;;;11.20;91.60;;;;;;5098835;28;20201;-74
2021/05/03 01:10:44;;;;;;;2.17;1.80;;;11.20;91.50;;;;;;5105864;28;20201;-74
2021/05/03 01:13:10;;;;;;;2.05;1.50;;;11.20;91.40;;;;;;5107074;28;20201;-74
2021/05/03 01:15:36;;;;;;;6.47;1.55;;;11.10;91.40;;;;;;5110833;28;20193;-73
2021/05/03 01:18:04;;;;;;;2.10;1.35;;;11.10;91.40;;;;;;5102685;28;20204;-73
2021/05/03 01:20:33;;;;;;;1.70;1.50;;;11.10;91.40;;;;;;5096708;28;20644;-73
2021/05/03 01:23:01;;;;;;;2.00;1.45;;;11.10;91.50;;;;;;5093541;28;20272;-73
2021/05/03 01:25:30;;;;;;;1.50;1.35;;;11.10;91.60;;;;;;5098397;28;20240;-74
2021/05/03 01:27:58;;;;;;;1.88;1.73;;;11.10;91.60;;;;;;5108127;28;20198;-73
2021/05/03 01:30:30;;;;;;;1.60;1.50;;;11.10;91.50;;;;;;5100247;28;20201;-74
2021/05/03 01:32:57;;;;;;;2.25;1.33;;;11.00;91.50;;;;;;5109788;28;20242;-73
2021/05/03 01:35:23;;;;;;;2.65;1.60;;;11.00;91.60;;;;;;5100082;28;20308;-73
2021/05/03 01:37:53;;;;;;;1.75;1.58;;;11.00;91.50;;;;;;5101695;28;20197;-74
2021/05/03 01:40:21;;;;;;;2.03;1.83;;;11.00;91.60;;;;;;5107516;28;20250;-74
2021/05/03 01:42:48;;;;;;;1.95;1.33;;;11.00;91.60;;;;;;5094229;28;20531;-74
2021/05/03 01:45:18;;;;;;;2.63;1.80;;;10.90;91.70;;;;;;5104754;28;20224;-75
2021/05/03 01:47:45;;;;;;;1.85;1.63;;;11.00;91.70;;;;;;5098818;28;20193;-74
2021/05/03 01:50:13;;;;;;;2.05;1.80;;;10.90;91.60;;;;;;5114475;28;20234;-74
2021/05/03 01:52:41;;;;;;;2.42;2.20;;;10.90;91.80;;;;;;5098929;28;20197;-74
2021/05/03 01:55:08;;;;;;;1.83;1.52;;;10.90;91.80;;;;;;5094682;28;20205;-74
2021/05/03 01:57:36;;;;;;;1.73;1.50;;;10.90;91.80;;;;;;5107861;28;20194;-74
2021/05/03 02:00:04;;;;;;;2.55;2.28;;;10.80;91.90;;;;;;5093935;28;20275;-74
2021/05/03 02:02:30;;;;;;;2.10;1.90;;;10.80;92.20;;;;;;5093855;28;20521;-74
2021/05/03 02:04:56;;;;;;;2.95;1.77;;;10.80;92.10;;;;;;5107234;28;20257;-74
2021/05/03 02:07:22;;;;;;;2.78;2.22;;;10.80;92.10;;;;;;5109684;28;20200;-74
2021/05/03 02:09:48;;;;;;;2.53;2.33;;;10.80;91.90;;;;;;5093305;28;20511;-74
2021/05/03 02:12:15;;;;;;;2.85;2.63;;;10.80;92.00;;;;;;5113766;28;20249;-74
2021/05/03 02:14:43;;;;;;;2.25;2.05;;;10.80;92.00;;;;;;5113365;28;20229;-73
2021/05/03 02:17:10;;;;;;;2.30;2.10;;;10.80;92.00;;;;;;5097166;28;20546;-74
2021/05/03 02:19:36;;;;;;;3.78;2.35;;;10.80;92.10;;;;;;5096901;28;20201;-74
2021/05/03 02:22:03;;;;;;;2.33;1.85;;;10.70;92.10;;;;;;5092999;28;20212;-74
2021/05/03 02:24:29;;;;;;;2.10;1.90;;;10.80;92.00;;;;;;5107276;28;20289;-73
2021/05/03 02:26:55;;;;;;;2.33;2.13;;;10.80;91.90;;;;;;5092553;28;20213;-73
2021/05/03 02:29:22;;;;;;;2.70;2.30;;;10.70;92.00;;;;;;5093293;28;20208;-73
2021/05/03 02:31:49;;;;;;;6.63;2.97;;;10.70;92.00;;;;;;5092920;28;20292;-74
2021/05/03 02:34:15;;;;;;;2.08;1.80;;;10.70;92.20;;;;;;5092747;28;20298;-75
2021/05/03 02:36:41;;;;;;;1.80;1.63;;;10.60;92.30;;;;;;5112172;28;20192;-76
2021/05/03 02:39:07;;;;;;;3.13;2.35;;;10.70;92.20;;;;;;5108858;28;20285;-75
2021/05/03 02:41:34;;;;;;;3.17;2.40;;;10.70;92.20;;;;;;5097830;28;20193;-72
2021/05/03 02:44:01;;;;;;;3.65;2.17;;;10.70;92.20;;;;;;5098190;28;20212;-75
2021/05/03 02:46:27;;;;;;;2.42;2.10;;;10.60;92.30;;;;;;5096269;28;20217;-72
2021/05/03 02:48:55;;;;;;;2.38;1.75;;;10.60;92.40;;;;;;5110722;28;20269;-73
2021/05/03 02:51:21;;;;;;;3.08;2.30;;;10.60;92.50;;;;;;5102156;28;20193;-74
2021/05/03 02:53:48;;;;;;;2.63;2.30;;;10.60;92.60;;;;;;5112466;28;20200;-73
2021/05/03 02:56:14;;;;;;;3.03;2.70;;;10.60;92.70;;;;;;5113297;28;20742;-73
2021/05/03 02:58:40;;;;;;;2.80;2.30;;;10.50;92.80;;;;;;5101824;28;20194;-72
2021/05/03 03:01:07;;;;;;;2.70;2.50;;;10.50;92.80;;;;;;5099780;28;20205;-72
2021/05/03 03:03:33;;;;;;;2.35;2.15;;;10.50;92.80;;;;;;5094709;28;20194;-73
2021/05/03 03:06:00;;;;;;;2.75;2.35;;;10.50;92.70;;;;;;5092349;28;20263;-72
2021/05/03 03:08:26;;;;;;;2.63;2.40;;;10.50;92.70;;;;;;5099709;28;20663;-73
2021/05/03 03:10:52;;;;;;;2.92;2.55;;;10.60;92.70;;;;;;5102034;28;20208;-73
2021/05/03 03:13:19;;;;;;;2.60;2.40;;;10.50;92.60;;;;;;5092464;28;20750;-73
2021/05/03 03:15:45;;;;;;;4.70;2.50;;;10.50;92.60;;;;;;5109077;28;20266;-73
2021/05/03 03:18:11;;;;;;;2.60;2.40;;;10.50;93.10;;;;;;5101215;28;20194;-73
2021/05/03 03:20:37;;;;;;;2.92;2.63;;;10.50;92.90;;;;;;5101213;28;20194;-73
2021/05/03 03:23:05;;;;;;;4.85;2.90;;;10.50;93.00;;;;;;5091959;28;20201;-73
2021/05/03 03:25:31;;;;;;;4.53;2.42;;;10.50;93.00;;;;;;5102154;28;20254;-73
2021/05/03 03:27:57;;;;;;;2.70;2.45;;;10.40;93.00;;;;;;5107929;28;20585;-73
2021/05/03 03:30:24;;;;;;;3.08;2.78;;;10.40;93.20;;;;;;5107815;28;20192;-73
2021/05/03 03:32:50;;;;;;;4.53;2.90;;;10.40;93.50;;;;;;5098348;28;20197;-73
2021/05/03 03:35:18;;;;;;;3.00;2.70;;;10.40;93.50;;;;;;5111364;28;20541;-73
2021/05/03 03:37:45;;;;;;;2.90;2.60;;;10.40;93.20;;;;;;5095323;28;20205;-73
2021/05/03 03:40:14;;;;;;;2.80;2.60;;;10.40;93.20;;;;;;5091802;28;20193;-73
2021/05/03 03:42:41;;;;;;;3.35;2.50;;;10.40;93.10;;;;;;5091628;28;20634;-73
2021/05/03 03:45:10;;;;;;;4.25;2.70;;;10.40;93.30;;;;;;5091817;28;20282;-73
2021/05/03 03:47:36;;;;;;;3.65;3.22;;;10.40;93.40;;;;;;5093821;28;20286;-72
2021/05/03 03:50:04;;;;;;;2.85;2.50;;;10.40;93.30;;;;;;5110838;28;20205;-73
2021/05/03 03:52:31;;;;;;;3.97;2.72;;;10.30;93.50;;;;;;5094984;28;20201;-73
2021/05/03 03:54:57;;;;;;;3.70;3.03;;;10.30;93.40;;;;;;5102810;28;20204;-73
2021/05/03 03:57:24;;;;;;;4.20;3.05;;;10.30;93.60;;;;;;5104269;28;20676;-73
2021/05/03 03:59:54;;;;;;;4.07;3.25;;;10.30;93.60;;;;;;5091382;28;20190;-73
2021/05/03 04:02:20;;;;;;;3.90;2.60;;;10.30;93.80;;;;;;5093299;28;20223;-74
2021/05/03 04:04:58;;;;;;;2.70;2.45;;;10.30;93.70;;;;;;5092572;28;20205;-74
2021/05/03 04:07:30;;;;;;;2.80;2.55;;;10.20;93.70;;;;;;5110855;28;20192;-74
2021/05/03 04:10:04;;;;;;;3.38;2.63;;;10.20;93.80;;;;;;5106587;28;20200;-74
2021/05/03 04:12:50;;;;;;;3.53;3.22;;;10.20;93.90;;;;;;5094186;28;20279;-74
2021/05/03 04:23:54;;;;;;;6.00;3.20;;;10.20;93.70;;;;;;5105808;28;20247;-74
2021/05/03 04:26:23;;;;;;;2.72;2.53;;;10.20;93.80;;;;;;5093714;28;20256;-74
2021/05/03 04:28:51;;;;;;;3.20;2.90;;;10.20;93.70;;;;;;5098161;28;20189;-74
2021/05/03 04:31:19;;;;;;;2.95;2.60;;;10.20;93.80;;;;;;5099296;28;20211;-74
2021/05/03 04:33:46;;;;;;;3.05;2.70;;;10.20;93.80;;;;;;5106611;28;20197;-74
2021/05/03 04:36:12;;;;;;;3.65;3.28;;;10.20;93.90;;;;;;5101002;28;20192;-74
2021/05/03 04:38:39;;;;;;;3.65;3.05;;;10.20;94.00;;;;;;5102831;28;20204;-74
2021/05/03 04:41:06;;;;;;;3.22;2.92;;;10.10;94.20;;;;;;5097349;28;20696;-74
2021/05/03 04:43:32;;;;;;;3.20;2.90;;;10.10;94.10;;;;;;5108726;28;20563;-73
2021/05/03 04:45:59;;;;;;;4.05;3.33;;;10.10;94.10;;;;;;5108086;28;20220;-73
2021/05/03 04:48:27;;;;;;;3.88;3.40;;;10.10;94.40;;;;;;5101594;28;20188;-73
2021/05/03 04:50:54;;;;;;;3.92;3.33;;;10.10;94.40;;;;;;5106777;28;20193;-73
2021/05/03 04:53:20;;;;;;;3.00;2.70;;;10.10;94.40;;;;;;5103431;28;20253;-73
2021/05/03 04:55:46;;;;;;;3.88;2.80;;;10.00;94.50;;;;;;5110718;28;20181;-73
2021/05/03 04:58:12;;;;;;;3.72;3.30;;;10.00;94.50;;;;;;5095057;28;20208;-73
2021/05/03 05:00:39;;;;;;;3.67;2.78;;;10.00;94.40;;;;;;5106338;28;20200;-73
2021/05/03 05:03:06;;;;;;;4.72;4.35;;;10.00;94.50;;;;;;5093581;28;20201;-73
2021/05/03 05:05:32;;;;;;;4.30;3.35;;;10.00;94.40;;;;;;5095710;28;20220;-73
2021/05/03 05:07:58;;;;;;;3.03;2.72;;;10.00;94.50;;;;;;5108823;28;20192;-74
2021/05/03 05:10:25;;;;;;;2.90;2.70;;;10.00;94.60;;;;;;5105612;28;20195;-74
2021/05/03 05:12:51;;;;;;;3.30;3.00;;;10.00;94.60;;;;;;5106549;28;20426;-73
2021/05/03 05:15:18;;;;;;;2.88;2.67;;;10.00;94.50;;;;;;5098893;28;20205;-72
2021/05/03 05:17:47;;;;;;;4.28;3.53;;;10.00;94.50;;;;;;5109902;28;20200;-73
2021/05/03 05:20:15;;;;;;;4.03;3.35;;;10.00;94.40;;;;;;5105397;28;20274;-73
2021/05/03 05:22:41;;;;;;;8.70;3.45;;;10.00;94.60;;;;;;5100608;28;20205;-73
2021/05/03 05:25:08;;;;;;;3.85;3.25;;;10.00;94.60;;;;;;5096433;28;20302;-73
2021/05/03 05:27:35;;;;;;;3.65;2.83;;;9.90;95.10;;;;;;5089816;28;20198;-73
2021/05/03 05:30:01;;;;;;;3.45;3.15;;;10.00;94.50;;;;;;5109726;28;20544;-73
2021/05/03 05:32:27;;;;;;;3.45;2.70;;;10.00;94.40;;;;;;5100589;28;20212;-73
2021/05/03 05:34:53;;;;;;;3.40;3.00;;;10.10;94.20;;;;;;5089847;28;21333;-73
2021/05/03 05:37:21;;;;;;;4.25;3.30;;;10.30;93.70;;;;;;5093775;28;20193;-73
2021/05/03 05:39:47;;;;;;;5.05;3.17;;;10.50;93.00;;;;;;5097912;28;20193;-73
2021/05/03 05:42:13;;;;;;;4.45;3.60;;;10.70;92.60;;;;;;5106130;28;20200;-74
2021/05/03 05:44:39;;;;;;;4.05;3.15;;;10.90;92.00;;;;;;5109724;28;20193;-73
2021/05/03 05:47:05;;;;;;;3.35;3.03;;;11.10;91.20;;;;;;5096554;28;20222;-73
2021/05/03 05:49:31;;;;;;;4.35;3.33;;;11.30;90.60;;;;;;5104273;28;20197;-73
2021/05/03 05:51:58;;;;;;;4.30;3.13;;;11.50;90.00;;;;;;5104242;28;20208;-73
2021/05/03 05:54:25;;;;;;;4.55;2.90;;;11.60;88.80;;;;;;5097848;28;20216;-73
2021/05/03 05:56:51;;;;;;;4.57;3.38;;;11.80;87.80;;;;;;5090055;28;20668;-72
2021/05/03 05:59:18;;;;;;;3.35;3.05;;;11.80;86.80;;;;;;5092632;28;20665;-72
2021/05/03 06:01:45;;;;;;;5.68;3.72;;;11.90;86.20;;;;;;5102286;28;20201;-73
2021/05/03 06:04:11;;;;;;;4.28;2.88;;;12.00;85.50;;;;;;5103062;28;20881;-73
2021/05/03 06:06:37;;;;;;;3.85;2.80;;;12.10;85.00;;;;;;5105305;28;20271;-73
2021/05/03 06:09:04;;;;;;;3.92;3.00;;;12.20;84.30;;;;;;5106633;28;20201;-73
2021/05/03 06:11:31;;;;;;;4.72;2.90;;;12.30;83.70;;;;;;5095290;28;20262;-73
2021/05/03 06:13:57;;;;;;;3.40;3.15;;;12.40;83.50;;;;;;5103328;28;20201;-73
2021/05/03 06:16:23;;;;;;;4.50;3.30;;;12.30;83.50;;;;;;5102475;28;20654;-73
2021/05/03 06:18:49;;;;;;;3.20;2.65;;;12.30;83.60;;;;;;5104015;28;20563;-75
2021/05/03 06:21:16;;;;;;;3.38;2.97;;;12.30;83.60;;;;;;5101679;28;20196;-77
2021/05/03 06:23:42;;;;;;;3.78;3.47;;;12.30;83.90;;;;;;5105195;28;20251;-77
2021/05/03 06:26:08;;;;;;;3.35;2.70;;;12.30;84.00;;;;;;5102294;28;20209;-78
2021/05/03 06:28:35;;;;;;;3.17;2.88;;;12.30;83.80;;;;;;5093982;28;20546;-76
2021/05/03 06:31:02;;;;;;;4.15;3.10;;;12.40;83.70;;;;;;5098745;28;20595;-76
2021/05/03 06:33:28;;;;;;;3.00;2.42;;;12.50;83.50;;;;;;5107741;28;20232;-76
2021/05/03 06:35:54;;;;;;;3.35;2.53;;;12.50;82.90;;;;;;5106378;28;20540;-76
2021/05/03 06:38:21;;;;;;;3.25;2.83;;;12.60;82.50;;;;;;5102985;28;20204;-75
2021/05/03 06:40:48;;;;;;;3.67;2.72;;;12.70;82.00;;;;;;5092849;28;20200;-74
2021/05/03 06:43:14;;;;;;;3.53;2.78;;;12.80;81.80;;;;;;5099490;28;20197;-76
2021/05/03 06:45:41;;;;;;;4.28;3.20;;;12.80;81.80;;;;;;5111981;28;20721;-75
2021/05/03 06:48:09;;;;;;;3.35;2.60;;;12.80;81.90;;;;;;5104288;28;20301;-74
2021/05/03 06:50:35;;;;;;;3.33;2.80;;;12.80;81.50;;;;;;5092839;28;20280;-75
2021/05/03 06:53:02;;;;;;;3.83;2.72;;;12.90;81.30;;;;;;5093420;28;20197;-74
2021/05/03 06:55:28;;;;;;;2.80;2.25;;;13.00;80.90;;;;;;5107562;28;20185;-75
2021/05/03 06:57:54;;;;;;;3.05;2.60;;;13.10;80.40;;;;;;5108424;28;20246;-74
2021/05/03 07:00:21;;;;;;;4.15;2.65;;;13.20;79.90;;;;;;5108340;28;20207;-75
2021/05/03 07:02:48;;;;;;;3.17;2.40;;;13.30;79.30;;;;;;5112847;28;20205;-75
2021/05/03 07:05:14;;;;;;;2.67;2.10;;;13.40;79.00;;;;;;5096712;28;20217;-75
2021/05/03 07:07:40;;;;;;;2.90;2.22;;;13.40;78.70;;;;;;5100369;28;20207;-73
2021/05/03 07:10:08;;;;;;;5.05;2.15;;;13.40;78.70;;;;;;5093071;28;20208;-76
2021/05/03 07:12:36;;;;;;;2.67;2.00;;;13.30;78.70;;;;;;5110322;28;20200;-76
2021/05/03 07:15:03;;;;;;;3.47;2.40;;;13.10;79.30;;;;;;5111660;28;20717;-75
2021/05/03 07:17:29;;;;;;;2.05;1.85;;;13.00;79.90;;;;;;5113657;28;20201;-73
2021/05/03 07:20:00;;;;;;;2.72;2.53;;;12.90;80.50;;;;;;5110743;28;20621;-75
2021/05/03 07:22:26;;;;;;;2.08;1.92;;;12.70;81.10;;;;;;5108346;28;20192;-74
2021/05/03 07:24:52;;;;;;;3.30;2.42;;;12.60;81.70;;;;;;5106601;28;20580;-74
2021/05/03 07:27:18;;;;;;;3.53;2.15;;;12.60;82.10;;;;;;5098928;28;20209;-73
2021/05/03 07:29:45;;;;;;;2.78;2.38;;;12.60;82.10;;;;;;5112052;28;20200;-73
2021/05/03 07:32:11;;;;;;;3.78;2.40;;;12.70;82.10;;;;;;5111478;28;20216;-75
2021/05/03 07:34:37;;;;;;;2.20;2.00;;;12.80;81.50;;;;;;5113214;28;20258;-74
2021/05/03 07:37:06;;;;;;;3.03;2.55;;;12.90;80.90;;;;;;5096456;28;20190;-74
2021/05/03 07:39:32;;;;;;;3.60;2.80;;;12.90;80.40;;;;;;5092746;28;20262;-74
2021/05/03 07:41:59;;;;;;;4.50;2.25;;;12.90;80.50;;;;;;5103578;28;20200;-74
2021/05/03 07:44:26;;;;;;;4.30;2.47;;;12.80;80.80;;;;;;5103746;28;20193;-74
2021/05/03 07:46:52;;;;;;;2.75;2.35;;;12.70;80.90;;;;;;5098168;28;20733;-74
2021/05/03 07:49:18;;;;;;;4.00;2.63;;;12.70;81.50;;;;;;5106718;28;20202;-74
2021/05/03 07:51:44;;;;;;;3.70;2.50;;;12.80;81.60;;;;;;5092609;28;20205;-74
2021/05/03 07:54:13;;;;;;;3.42;2.63;;;12.90;81.40;;;;;;5093491;28;20668;-74
2021/05/03 07:56:39;;;;;;;3.63;2.45;;;13.00;80.90;;;;;;5093564;28;20216;-75
2021/05/03 07:59:05;;;;;;;2.55;2.28;;;13.20;80.20;;;;;;5097959;28;20204;-75
2021/05/03 08:01:31;;;;;;;2.38;2.17;;;13.30;80.50;;;;;;5103565;28;20192;-75
2021/05/03 08:03:57;;;;;;;4.10;3.25;;;13.40;79.10;;;;;;5100164;28;20232;-75
2021/05/03 08:06:24;;;;;;;2.22;2.03;;;13.50;78.50;;;;;;5103940;28;20537;-75
2021/05/03 08:08:50;;;;;;;2.20;1.80;;;13.60;78.30;;;;;;5100456;28;20232;-75
2021/05/03 08:11:18;;;;;;;3.20;2.88;;;13.70;77.80;;;;;;5095084;28;20193;-74
2021/05/03 08:13:45;;;;;;;2.67;2.35;;;13.80;76.90;;;;;;5092309;28;20217;-75
2021/05/03 08:16:13;;;;;;;3.70;2.90;;;13.90;76.20;;;;;;5093652;28;20205;-74
2021/05/03 08:18:39;;;;;;;3.78;2.47;;;14.00;75.20;;;;;;5098175;28;20716;-74
2021/05/03 08:21:07;;;;;;;3.45;2.25;;;14.00;74.90;;;;;;5100212;28;20189;-75
2021/05/03 08:23:33;;;;;;;1.83;1.73;;;14.10;75.10;;;;;;5091891;28;20294;-74
2021/05/03 08:26:00;;;;;;;6.18;2.65;;;14.20;74.30;;;;;;5092396;28;20216;-75
2021/05/03 08:28:27;;;;;;;2.83;2.60;;;14.20;74.10;;;;;;5096420;28;20836;-75
2021/05/03 08:30:53;;;;;;;2.33;1.90;;;14.30;73.70;;;;;;5107435;28;20204;-75
2021/05/03 08:33:20;;;;;;;2.60;2.08;;;14.30;73.20;;;;;;5101529;28;20189;-75
2021/05/03 08:35:47;;;;;;;2.03;1.83;;;14.30;72.80;;;;;;5098472;28;20486;-75
2021/05/03 08:38:14;;;;;;;3.90;2.15;;;14.40;72.40;;;;;;5095773;28;20189;-75
2021/05/03 08:40:41;;;;;;;4.15;1.88;;;14.40;72.40;;;;;;5097124;28;20193;-75
2021/05/03 08:43:07;;;;;;;2.13;1.67;;;14.50;72.50;;;;;;5097369;28;20572;-75
2021/05/03 08:45:37;;;;;;;3.22;1.95;;;14.60;71.80;;;;;;5112065;28;20691;-75
2021/05/03 08:48:08;;;;;;;3.50;1.65;;;14.60;71.50;;;;;;5112382;28;20242;-75
2021/05/03 08:50:54;;;;;;;1.90;1.58;;;14.70;71.30;;;;;;5112400;28;20200;-75
2021/05/03 08:53:26;;;;;;;2.95;1.92;;;14.70;70.70;;;;;;5102889;28;20197;-76
2021/05/03 08:55:52;;;;;;;1.70;1.60;;;14.80;70.70;;;;;;5111999;28;20227;-75
2021/05/03 08:58:19;;;;;;;1.63;1.33;;;14.80;70.80;;;;;;5112029;28;20208;-75
2021/05/03 09:00:46;;;;;;;1.58;1.48;;;14.80;70.60;;;;;;5100310;28;20197;-75
2021/05/03 09:03:13;;;;;;;3.70;1.65;;;14.80;70.40;;;;;;5091625;28;20225;-77
2021/05/03 09:05:41;;;;;;;1.77;1.60;;;14.80;70.40;;;;;;5090901;28;20223;-84
2021/05/03 09:08:09;;;;;;;1.70;1.60;;;14.90;70.60;;;;;;5101436;28;21520;-75
2021/05/03 09:10:44;;;;;;;2.00;1.80;;;14.90;70.00;;;;;;5099006;28;20255;-75
2021/05/03 09:13:11;;;;;;;4.10;2.85;;;14.80;69.80;;;;;;5104382;28;20196;-74
2021/05/03 09:15:38;;;;;;;4.75;2.60;;;14.80;69.80;;;;;;5108922;28;20291;-78
2021/05/03 09:18:05;;;;;;;2.85;1.85;;;14.80;68.80;;;;;;5093716;28;20200;-76
2021/05/03 09:20:32;;;;;;;2.10;1.90;;;14.80;69.30;;;;;;5090505;28;20216;-76
2021/05/03 09:23:03;;;;;;;1.90;1.70;;;14.80;68.90;;;;;;5102273;28;20211;-76
2021/05/03 09:25:33;;;;;;;3.33;2.00;;;14.80;68.80;;;;;;5103068;28;20277;-76
2021/05/03 09:28:08;;;;;;;1.95;1.75;;;14.90;68.90;;;;;;5118607;28;20197;-75
2021/05/03 09:30:41;;;;;;;2.50;1.70;;;14.90;68.60;;;;;;5110670;28;20641;-75
2021/05/03 09:33:13;;;;;;;2.55;1.35;;;15.00;68.70;;;;;;5110622;28;20250;-75
2021/05/03 09:35:43;;;;;;;1.92;1.65;;;15.00;68.40;;;;;;5108738;28;20197;-74
2021/05/03 09:38:28;;;;;;;2.00;1.63;;;15.00;67.60;;;;;;5090607;28;20201;-75
2021/05/03 09:41:07;;;;;;;3.03;2.15;;;15.00;67.30;;;;;;5094779;28;20561;-77
2021/05/03 09:43:33;;;;;;;1.63;1.52;;;15.00;67.20;;;;;;5114908;27;20206;-77
2021/05/03 09:45:59;;;;;;;2.40;1.75;;;15.10;67.30;;;;;;5114656;28;20216;-76
2021/05/03 09:48:26;;;;;;;3.65;1.30;;;15.10;67.40;;;;;;5113118;28;20197;-77
2021/05/03 09:50:53;;;;;;;2.75;1.65;;;15.10;67.20;;;;;;5114508;28;20262;-78
2021/05/03 09:53:19;;;;;;;3.00;2.10;;;15.10;66.70;;;;;;5113859;28;20208;-78
2021/05/03 09:55:49;;;;;;;2.83;1.48;;;15.10;67.00;;;;;;5113110;28;20195;-76
2021/05/03 09:58:17;;;;;;;1.95;1.45;;;15.10;66.70;;;;;;5107927;28;20193;-75
2021/05/03 10:00:45;;;;;;;2.75;2.10;;;15.00;66.40;;;;;;5097321;28;20689;-75
2021/05/03 10:03:36;;;;;;;2.78;1.27;;;15.00;66.40;;;;;;5099325;28;20197;-76
2021/05/03 10:06:04;;;;;;;2.55;1.58;;;15.00;65.50;;;;;;5096741;28;20221;-77
2021/05/03 10:08:30;;;;;;;2.33;2.13;;;15.00;65.70;;;;;;5111188;28;21088;-78
2021/05/03 10:10:57;;;;;;;3.25;1.67;;;15.00;65.20;;;;;;5104652;28;20212;-78
2021/05/03 10:13:24;;;;;;;3.38;1.75;;;15.00;65.30;;;;;;5106767;28;20235;-77
2021/05/03 10:15:54;;;;;;;2.45;1.80;;;15.00;66.00;;;;;;5095098;28;20200;-77
2021/05/03 10:18:20;;;;;;;1.90;1.60;;;14.90;65.20;;;;;;5104140;27;20201;-79
2021/05/03 10:20:48;;;;;;;2.53;1.90;;;15.00;65.50;;;;;;5114477;28;20192;-75
2021/05/03 10:23:15;;;;;;;2.50;1.70;;;15.00;65.80;;;;;;5103741;28;20197;-74
2021/05/03 10:25:42;;;;;;;2.25;1.90;;;15.00;65.50;;;;;;5094380;28;20213;-76
2021/05/03 10:28:09;;;;;;;2.70;2.00;;;15.00;65.70;;;;;;5097366;28;20235;-76
2021/05/03 10:30:41;;;;;;;2.55;2.35;;;15.00;65.70;;;;;;5101210;28;20265;-76
2021/05/03 10:33:10;;;;;;;2.50;2.00;;;15.10;65.90;;;;;;5105382;28;20220;-75
2021/05/03 10:35:39;;;;;;;3.50;1.60;;;15.00;65.80;;;;;;5114301;28;20181;-75
2021/05/03 10:38:08;;;;;;;2.53;1.88;;;15.00;65.60;;;;;;5117588;28;20302;-75
2021/05/03 10:40:43;;;;;;;2.00;1.73;;;15.00;65.80;;;;;;5103265;28;20205;-74
2021/05/03 10:43:13;;;;;;;2.25;2.05;;;15.10;65.80;;;;;;5093968;28;20655;-74
2021/05/03 10:45:41;;;;;;;3.83;2.30;;;15.10;66.00;;;;;;5098990;28;20224;-75
2021/05/03 10:48:34;;;;;;;3.97;2.70;;;15.10;65.80;;;;;;5104167;28;20607;-75
2021/05/03 10:51:02;;;;;;;2.30;1.83;;;15.10;66.00;;;;;;5110021;28;20196;-75
2021/05/03 10:53:34;;;;;;;3.80;2.75;;;15.10;66.70;;;;;;5113854;28;20815;-75
2021/05/03 10:56:02;;;;;;;2.80;2.60;;;15.10;65.70;;;;;;5111442;28;20189;-76
2021/05/03 10:58:29;;;;;;;3.15;2.38;;;15.10;65.70;;;;;;5105966;27;20212;-77
2021/05/03 11:00:58;;;;;;;3.35;2.33;;;15.10;65.90;;;;;;5106744;28;20254;-76
2021/05/03 11:04:01;;;;;;;2.35;2.15;;;15.10;65.60;;;;;;5093744;28;20220;-77
2021/05/03 11:07:04;;;;;;;2.38;2.17;;;15.10;65.40;;;;;;5096130;28;20209;-76
2021/05/03 11:09:41;;;;;;;2.25;1.90;;;15.10;65.80;;;;;;5056545;28;20193;-76
2021/05/03 11:12:28;;;;;;;2.35;1.90;;;15.10;65.30;;;;;;5100451;28;20220;-76
2021/05/03 11:15:18;;;;;;;3.80;3.17;;;15.10;65.30;;;;;;5112776;28;20236;-76
2021/05/03 11:18:17;;;;;;;2.95;1.90;;;15.10;65.00;;;;;;5095794;28;20510;-76
2021/05/03 11:21:03;;;;;;;5.00;3.58;;;15.10;65.70;;;;;;5112191;28;20209;-76
2021/05/03 11:23:31;;;;;;;3.80;3.45;;;15.10;65.60;;;;;;5101253;28;20247;-78
2021/05/03 11:25:58;;;;;;;2.67;2.28;;;15.10;65.40;;;;;;5098112;27;20333;-76
2021/05/03 11:28:29;;;;;;;3.95;2.35;;;15.10;65.40;;;;;;5092472;28;20633;-76
2021/05/03 11:30:59;;;;;;;4.40;2.10;;;15.20;65.50;;;;;;5095514;28;20268;-75
2021/05/03 11:33:40;;;;;;;4.90;2.20;;;15.20;65.90;;;;;;5104681;28;20212;-77
2021/05/03 11:36:09;;;;;;;3.15;2.40;;;15.20;65.90;;;;;;5103364;28;20185;-76
2021/05/03 11:38:48;;;;;;;2.50;2.30;;;15.20;65.60;;;;;;5091442;28;20228;-75
2021/05/03 11:41:28;;;;;;;2.40;2.20;;;15.20;66.00;;;;;;5105079;28;20193;-74
2021/05/03 11:46:36;;;;;;;3.63;2.85;;;15.30;65.90;;;;;;5078265;28;20212;-75
2021/05/03 11:49:15;;;;;;;3.63;2.10;;;15.30;65.70;;;;;;5098973;28;20246;-75
2021/05/03 11:51:43;;;;;;;2.22;1.75;;;15.30;65.80;;;;;;5100375;28;20181;-75
2021/05/03 11:54:26;;;;;;;3.00;2.03;;;15.30;66.20;;;;;;5098636;28;20196;-75
2021/05/03 11:56:58;;;;;;;2.17;1.98;;;15.20;65.60;;;;;;5089763;28;20178;-74
2021/05/03 11:59:24;;;;;;;3.28;2.40;;;15.20;65.70;;;;;;5097078;28;20193;-80
2021/05/03 12:01:58;;;;;;;2.13;2.03;;;15.30;65.80;;;;;;5091030;28;20198;-76
2021/05/03 12:04:35;;;;;;;3.58;2.95;;;15.20;65.70;;;;;;5091312;28;20717;-78
2021/05/03 12:07:11;;;;;;;2.22;2.00;;;15.30;65.10;;;;;;5091615;28;20197;-78
2021/05/03 12:09:37;;;;;;;3.25;2.20;;;15.30;65.00;;;;;;5091353;28;20200;-77
2021/05/03 12:12:06;;;;;;;4.22;2.72;;;15.30;65.00;;;;;;5099012;28;20237;-76
2021/05/03 12:14:40;;;;;;;3.03;2.35;;;15.30;65.00;;;;;;5106845;28;20197;-75
2021/05/03 12:17:24;;;;;;;3.58;2.38;;;15.30;65.10;;;;;;5104092;28;20193;-75
2021/05/03 12:19:52;;;;;;;2.67;1.90;;;15.30;65.10;;;;;;5092413;28;20194;-76
2021/05/03 12:22:20;;;;;;;5.25;2.35;;;15.30;65.70;;;;;;5090909;28;20827;-76
2021/05/03 12:24:47;;;;;;;5.15;2.40;;;15.30;66.10;;;;;;5108812;28;20246;-75
2021/05/03 12:27:14;;;;;;;4.20;1.95;;;15.30;66.10;;;;;;5109624;28;20224;-79
2021/05/03 12:29:43;;;;;;;2.35;2.15;;;15.20;66.30;;;;;;5095293;28;20205;-78
2021/05/03 12:32:12;;;;;;;2.50;2.40;;;15.30;66.50;;;;;;5091274;28;20209;-75
2021/05/03 12:34:43;;;;;;;3.13;2.83;;;15.30;66.30;;;;;;5094352;28;20197;-76
2021/05/03 12:37:15;;;;;;;4.05;2.80;;;15.30;65.90;;;;;;5097130;28;20541;-75
2021/05/03 12:39:57;;;;;;;2.42;2.15;;;15.30;66.30;;;;;;5111562;28;20188;-75
2021/05/03 12:42:29;;;;;;;2.55;2.00;;;15.30;65.40;;;;;;5100429;28;20207;-75
2021/05/03 12:44:57;;;;;;;4.72;2.10;;;15.40;65.60;;;;;;5107757;28;20265;-75
2021/05/03 12:47:39;;;;;;;4.95;3.00;;;15.40;65.60;;;;;;5109273;28;20212;-75
2021/05/03 12:50:13;;;;;;;3.35;2.67;;;15.40;64.90;;;;;;5090630;28;20208;-74
2021/05/03 12:52:44;;;;;;;3.20;2.50;;;15.50;64.60;;;;;;5102927;28;20516;-76
2021/05/03 12:55:18;;;;;;;2.45;2.25;;;15.50;63.90;;;;;;5107846;28;20243;-74
2021/05/03 12:57:57;;;;;;;3.30;2.38;;;15.50;63.90;;;;;;5098883;28;20549;-75
2021/05/03 13:00:28;;;;;;;1.92;1.70;;;15.50;64.10;;;;;;5109375;28;20279;-76
2021/05/03 13:03:02;;;;;;;5.93;2.70;;;15.60;64.10;;;;;;5108676;28;20193;-75
2021/05/03 13:05:33;;;;;;;2.30;2.10;;;15.50;64.00;;;;;;5090253;28;20193;-75
2021/05/03 13:08:08;;;;;;;6.63;3.25;;;15.60;63.50;;;;;;5091071;28;20537;-76